sensor_id;sensor_type;location;lat;lon;timestamp;pressure;altitude;pressure_sealevel;temperature;humidity
74627;BME280;63132;52.268;5.192;2024-02-21T00:01:45;101974.34;;;13.21;64.33
74627;BME280;63132;52.268;5.192;2024-02-21T00:04:11;101970.81;;;13.39;63.95
74627;BME280;63132;52.268;5.192;2024-02-21T00:06:36;101973.22;;;13.72;63.32
74627;BME280;63132;52.268;5.192;2024-02-21T00:09:01;101958.88;;;13.84;63.11
74627;BME280;63132;52.268;5.192;2024-02-21T00:11:28;101964.81;;;13.33;64.11
74627;BME280;63132;52.268;5.192;2024-02-21T00:13:53;101958.09;;;13.73;62.90
74627;BME280;63132;52.268;5.192;2024-02-21T00:16:18;101967.63;;;13.54;63.70
74627;BME280;63132;52.268;5.192;2024-02-21T00:18:44;101959.69;;;13.67;63.07
74627;BME280;63132;52.268;5.192;2024-02-21T00:21:09;101965.25;;;13.92;62.30
74627;BME280;63132;52.268;5.192;2024-02-21T00:23:40;101968.06;;;13.71;63.08
74627;BME280;63132;52.268;5.192;2024-02-21T00:26:06;101952.53;;;13.73;62.22
74627;BME280;63132;52.268;5.192;2024-02-21T00:28:32;101959.69;;;13.67;62.76
74627;BME280;63132;52.268;5.192;2024-02-21T00:30:58;101969.22;;;14.09;61.28
74627;BME280;63132;52.268;5.192;2024-02-21T00:33:23;101970.81;;;13.92;62.01
74627;BME280;63132;52.268;5.192;2024-02-21T00:35:48;101974.38;;;14.00;61.75
74627;BME280;63132;52.268;5.192;2024-02-21T00:38:14;101952.91;;;14.00;61.99
74627;BME280;63132;52.268;5.192;2024-02-21T00:40:39;101938.22;;;13.78;62.05
74627;BME280;63132;52.268;5.192;2024-02-21T00:43:04;101942.19;;;13.88;62.25
74627;BME280;63132;52.268;5.192;2024-02-21T00:45:30;101948.16;;;13.51;63.21
74627;BME280;63132;52.268;5.192;2024-02-21T00:47:55;101937.44;;;13.64;62.87
74627;BME280;63132;52.268;5.192;2024-02-21T00:50:20;101940.59;;;13.34;63.98
74627;BME280;63132;52.268;5.192;2024-02-21T00:52:45;101938.22;;;13.57;63.74
74627;BME280;63132;52.268;5.192;2024-02-21T00:55:11;101939.00;;;13.47;63.92
74627;BME280;63132;52.268;5.192;2024-02-21T00:57:36;101946.16;;;13.41;63.18
74627;BME280;63132;52.268;5.192;2024-02-21T01:00:03;101949.34;;;13.28;64.64
74627;BME280;63132;52.268;5.192;2024-02-21T01:02:28;101935.44;;;13.78;62.86
74627;BME280;63132;52.268;5.192;2024-02-21T01:04:57;101939.81;;;13.72;62.73
74627;BME280;63132;52.268;5.192;2024-02-21T01:07:22;101929.44;;;13.91;62.72
74627;BME280;63132;52.268;5.192;2024-02-21T01:09:47;101937.44;;;13.67;62.63
74627;BME280;63132;52.268;5.192;2024-02-21T01:12:13;101938.97;;;14.04;62.23
74627;BME280;63132;52.268;5.192;2024-02-21T01:14:38;101925.91;;;13.65;63.14
74627;BME280;63132;52.268;5.192;2024-02-21T01:17:03;101931.84;;;13.74;63.00
74627;BME280;63132;52.268;5.192;2024-02-21T01:19:31;101927.88;;;13.54;64.07
74627;BME280;63132;52.268;5.192;2024-02-21T01:21:56;101927.03;;;14.07;62.30
74627;BME280;63132;52.268;5.192;2024-02-21T01:24:21;101918.34;;;13.69;62.29
74627;BME280;63132;52.268;5.192;2024-02-21T01:26:47;101920.31;;;13.87;63.16
74627;BME280;63132;52.268;5.192;2024-02-21T01:29:12;101913.16;;;13.61;63.56
74627;BME280;63132;52.268;5.192;2024-02-21T01:31:37;101913.84;;;14.32;61.44
74627;BME280;63132;52.268;5.192;2024-02-21T01:34:02;101902.06;;;13.43;64.15
74627;BME280;63132;52.268;5.192;2024-02-21T01:36:28;101887.25;;;13.99;62.61
74627;BME280;63132;52.268;5.192;2024-02-21T01:38:53;101892.09;;;13.67;63.87
74627;BME280;63132;52.268;5.192;2024-02-21T01:41:18;101889.69;;;13.90;62.68
74627;BME280;63132;52.268;5.192;2024-02-21T01:43:44;101878.53;;;13.83;62.99
74627;BME280;63132;52.268;5.192;2024-02-21T01:46:10;101872.56;;;13.84;62.33
74627;BME280;63132;52.268;5.192;2024-02-21T01:48:36;101875.38;;;13.74;63.69
74627;BME280;63132;52.268;5.192;2024-02-21T01:51:02;101873.34;;;13.99;62.37
74627;BME280;63132;52.268;5.192;2024-02-21T01:53:37;101875.34;;;13.84;62.75
74627;BME280;63132;52.268;5.192;2024-02-21T01:56:05;101872.88;;;14.15;61.64
74627;BME280;63132;52.268;5.192;2024-02-21T01:58:33;101878.13;;;13.84;62.74
74627;BME280;63132;52.268;5.192;2024-02-21T02:01:02;101864.19;;;13.99;62.20
74627;BME280;63132;52.268;5.192;2024-02-21T02:03:27;101873.81;;;13.55;63.91
74627;BME280;63132;52.268;5.192;2024-02-21T02:05:53;101879.34;;;13.94;63.06
74627;BME280;63132;52.268;5.192;2024-02-21T02:08:19;101872.97;;;14.01;62.24
74627;BME280;63132;52.268;5.192;2024-02-21T02:10:45;101866.97;;;13.99;62.72
74627;BME280;63132;52.268;5.192;2024-02-21T02:13:13;101860.63;;;14.02;62.64
74627;BME280;63132;52.268;5.192;2024-02-21T02:15:43;101855.00;;;14.12;61.60
74627;BME280;63132;52.268;5.192;2024-02-21T02:18:10;101856.31;;;13.72;63.30
74627;BME280;63132;52.268;5.192;2024-02-21T02:20:36;101855.47;;;13.93;62.63
74627;BME280;63132;52.268;5.192;2024-02-21T02:25:31;101854.72;;;13.64;63.17
74627;BME280;63132;52.268;5.192;2024-02-21T02:27:57;101862.53;;;14.19;61.87
74627;BME280;63132;52.268;5.192;2024-02-21T02:30:22;101848.25;;;14.10;61.65
74627;BME280;63132;52.268;5.192;2024-02-21T02:32:47;101844.63;;;14.20;61.72
74627;BME280;63132;52.268;5.192;2024-02-21T02:35:13;101835.13;;;14.07;62.47
74627;BME280;63132;52.268;5.192;2024-02-21T02:37:38;101840.59;;;14.28;61.56
74627;BME280;63132;52.268;5.192;2024-02-21T02:40:07;101844.19;;;14.29;61.49
74627;BME280;63132;52.268;5.192;2024-02-21T02:42:33;101841.09;;;14.05;62.52
74627;BME280;63132;52.268;5.192;2024-02-21T02:44:58;101839.41;;;14.29;61.23
74627;BME280;63132;52.268;5.192;2024-02-21T02:47:23;101832.31;;;14.14;61.45
74627;BME280;63132;52.268;5.192;2024-02-21T02:49:49;101832.34;;;14.07;62.58
74627;BME280;63132;52.268;5.192;2024-02-21T02:52:17;101824.75;;;14.14;61.66
74627;BME280;63132;52.268;5.192;2024-02-21T02:54:43;101826.38;;;14.05;62.32
74627;BME280;63132;52.268;5.192;2024-02-21T02:57:08;101814.25;;;14.44;60.88
74627;BME280;63132;52.268;5.192;2024-02-21T02:59:34;101823.34;;;14.62;60.43
74627;BME280;63132;52.268;5.192;2024-02-21T03:01:59;101811.50;;;14.40;61.09
74627;BME280;63132;52.268;5.192;2024-02-21T03:04:24;101821.84;;;14.39;61.14
74627;BME280;63132;52.268;5.192;2024-02-21T03:06:50;101814.31;;;14.33;61.21
74627;BME280;63132;52.268;5.192;2024-02-21T03:09:16;101797.97;;;14.46;60.83
74627;BME280;63132;52.268;5.192;2024-02-21T03:11:42;101802.31;;;14.50;60.69
74627;BME280;63132;52.268;5.192;2024-02-21T03:14:09;101804.75;;;14.34;61.08
74627;BME280;63132;52.268;5.192;2024-02-21T03:16:34;101799.63;;;14.22;61.48
74627;BME280;63132;52.268;5.192;2024-02-21T03:19:00;101793.19;;;14.39;61.07
74627;BME280;63132;52.268;5.192;2024-02-21T03:21:25;101781.34;;;14.21;61.43
74627;BME280;63132;52.268;5.192;2024-02-21T03:23:50;101773.31;;;14.33;61.52
74627;BME280;63132;52.268;5.192;2024-02-21T03:26:15;101775.53;;;13.87;62.88
74627;BME280;63132;52.268;5.192;2024-02-21T03:28:42;101773.25;;;14.44;61.20
74627;BME280;63132;52.268;5.192;2024-02-21T03:31:11;101765.41;;;14.25;61.72
74627;BME280;63132;52.268;5.192;2024-02-21T03:33:37;101763.41;;;14.25;61.74
74627;BME280;63132;52.268;5.192;2024-02-21T03:36:03;101755.91;;;14.11;61.70
74627;BME280;63132;52.268;5.192;2024-02-21T03:38:29;101748.88;;;13.89;62.72
74627;BME280;63132;52.268;5.192;2024-02-21T03:40:54;101747.69;;;13.87;62.25
74627;BME280;63132;52.268;5.192;2024-02-21T03:43:19;101751.28;;;13.76;63.19
74627;BME280;63132;52.268;5.192;2024-02-21T03:45:44;101749.88;;;14.27;61.26
74627;BME280;63132;52.268;5.192;2024-02-21T03:48:10;101761.50;;;14.11;62.11
74627;BME280;63132;52.268;5.192;2024-02-21T03:50:36;101751.31;;;13.73;63.01
74627;BME280;63132;52.268;5.192;2024-02-21T03:53:01;101753.31;;;13.72;62.84
74627;BME280;63132;52.268;5.192;2024-02-21T03:55:26;101745.56;;;14.16;61.87
74627;BME280;63132;52.268;5.192;2024-02-21T03:57:51;101742.81;;;14.05;62.46
74627;BME280;63132;52.268;5.192;2024-02-21T04:00:17;101739.34;;;13.87;63.03
74627;BME280;63132;52.268;5.192;2024-02-21T04:02:43;101744.81;;;14.08;62.17
74627;BME280;63132;52.268;5.192;2024-02-21T04:05:08;101742.50;;;13.89;62.55
74627;BME280;63132;52.268;5.192;2024-02-21T04:07:37;101742.91;;;13.87;62.78
74627;BME280;63132;52.268;5.192;2024-02-21T04:10:02;101743.13;;;14.25;61.53
74627;BME280;63132;52.268;5.192;2024-02-21T04:12:28;101733.63;;;14.11;61.80
74627;BME280;63132;52.268;5.192;2024-02-21T04:14:53;101718.63;;;13.95;62.91
74627;BME280;63132;52.268;5.192;2024-02-21T04:17:18;101718.75;;;13.55;63.73
74627;BME280;63132;52.268;5.192;2024-02-21T04:19:43;101724.28;;;13.73;62.94
74627;BME280;63132;52.268;5.192;2024-02-21T04:22:09;101720.28;;;13.74;63.14
74627;BME280;63132;52.268;5.192;2024-02-21T04:24:34;101729.81;;;13.80;62.59
74627;BME280;63132;52.268;5.192;2024-02-21T04:26:59;101728.31;;;13.58;63.99
74627;BME280;63132;52.268;5.192;2024-02-21T04:29:24;101720.72;;;13.66;62.95
74627;BME280;63132;52.268;5.192;2024-02-21T04:31:50;101724.97;;;13.92;62.45
74627;BME280;63132;52.268;5.192;2024-02-21T04:34:15;101724.03;;;14.20;61.63
74627;BME280;63132;52.268;5.192;2024-02-21T04:36:41;101719.59;;;14.29;61.16
74627;BME280;63132;52.268;5.192;2024-02-21T04:39:06;101723.75;;;14.00;62.09
74627;BME280;63132;52.268;5.192;2024-02-21T04:41:31;101711.97;;;13.67;63.03
74627;BME280;63132;52.268;5.192;2024-02-21T04:43:57;101709.78;;;14.10;61.55
74627;BME280;63132;52.268;5.192;2024-02-21T04:46:22;101694.22;;;14.13;61.40
74627;BME280;63132;52.268;5.192;2024-02-21T04:48:47;101705.03;;;14.04;61.63
74627;BME280;63132;52.268;5.192;2024-02-21T04:51:13;101704.91;;;14.25;61.11
74627;BME280;63132;52.268;5.192;2024-02-21T04:53:38;101699.16;;;13.88;62.03
74627;BME280;63132;52.268;5.192;2024-02-21T04:56:04;101687.22;;;13.87;62.48
74627;BME280;63132;52.268;5.192;2024-02-21T04:58:29;101699.31;;;14.29;60.54
74627;BME280;63132;52.268;5.192;2024-02-21T05:00:55;101690.00;;;13.83;61.58
74627;BME280;63132;52.268;5.192;2024-02-21T05:03:20;101691.66;;;13.70;62.09
74627;BME280;63132;52.268;5.192;2024-02-21T05:05:45;101687.25;;;13.76;62.33
74627;BME280;63132;52.268;5.192;2024-02-21T05:08:11;101687.72;;;13.71;61.90
74627;BME280;63132;52.268;5.192;2024-02-21T05:10:36;101684.16;;;13.60;62.67
74627;BME280;63132;52.268;5.192;2024-02-21T05:13:01;101673.34;;;13.76;61.94
74627;BME280;63132;52.268;5.192;2024-02-21T05:15:27;101670.13;;;13.89;61.34
74627;BME280;63132;52.268;5.192;2024-02-21T05:17:52;101670.13;;;13.89;61.42
74627;BME280;63132;52.268;5.192;2024-02-21T05:20:18;101664.72;;;13.49;62.76
74627;BME280;63132;52.268;5.192;2024-02-21T05:22:43;101665.13;;;13.48;62.87
74627;BME280;63132;52.268;5.192;2024-02-21T05:25:08;101662.25;;;13.73;62.22
74627;BME280;63132;52.268;5.192;2024-02-21T05:27:34;101659.38;;;13.87;61.79
74627;BME280;63132;52.268;5.192;2024-02-21T05:30:00;101653.13;;;13.62;61.73
74627;BME280;63132;52.268;5.192;2024-02-21T05:32:26;101648.66;;;13.85;61.03
74627;BME280;63132;52.268;5.192;2024-02-21T05:34:51;101638.31;;;13.86;61.55
74627;BME280;63132;52.268;5.192;2024-02-21T05:37:17;101636.41;;;13.72;61.92
74627;BME280;63132;52.268;5.192;2024-02-21T05:39:42;101631.34;;;13.46;62.94
74627;BME280;63132;52.268;5.192;2024-02-21T05:42:07;101620.63;;;13.41;62.86
74627;BME280;63132;52.268;5.192;2024-02-21T05:44:32;101612.31;;;13.37;63.42
74627;BME280;63132;52.268;5.192;2024-02-21T05:46:58;101608.59;;;13.65;62.40
74627;BME280;63132;52.268;5.192;2024-02-21T05:49:23;101606.91;;;13.82;61.50
74627;BME280;63132;52.268;5.192;2024-02-21T05:51:48;101592.38;;;13.49;62.35
74627;BME280;63132;52.268;5.192;2024-02-21T05:54:14;101599.34;;;13.82;61.86
74627;BME280;63132;52.268;5.192;2024-02-21T05:56:39;101600.22;;;13.69;61.98
74627;BME280;63132;52.268;5.192;2024-02-21T05:59:04;101602.59;;;13.70;61.84
74627;BME280;63132;52.268;5.192;2024-02-21T06:01:29;101595.75;;;13.85;61.62
74627;BME280;63132;52.268;5.192;2024-02-21T06:03:55;101594.59;;;13.79;61.39
74627;BME280;63132;52.268;5.192;2024-02-21T06:06:20;101599.53;;;14.13;60.74
74627;BME280;63132;52.268;5.192;2024-02-21T06:08:47;101593.97;;;13.47;62.95
74627;BME280;63132;52.268;5.192;2024-02-21T06:11:12;101580.03;;;13.54;62.69
74627;BME280;63132;52.268;5.192;2024-02-21T06:13:38;101582.88;;;13.43;63.03
74627;BME280;63132;52.268;5.192;2024-02-21T06:16:06;101582.13;;;13.36;62.76
74627;BME280;63132;52.268;5.192;2024-02-21T06:18:31;101583.59;;;13.54;62.38
74627;BME280;63132;52.268;5.192;2024-02-21T06:20:57;101589.97;;;13.48;62.79
74627;BME280;63132;52.268;5.192;2024-02-21T06:23:22;101588.41;;;13.50;62.79
74627;BME280;63132;52.268;5.192;2024-02-21T06:25:47;101596.41;;;13.38;63.42
74627;BME280;63132;52.268;5.192;2024-02-21T06:28:13;101601.94;;;13.45;63.11
74627;BME280;63132;52.268;5.192;2024-02-21T06:30:38;101605.50;;;13.49;62.83
74627;BME280;63132;52.268;5.192;2024-02-21T06:33:05;101601.75;;;13.80;62.24
74627;BME280;63132;52.268;5.192;2024-02-21T06:35:33;101610.47;;;13.86;61.71
74627;BME280;63132;52.268;5.192;2024-02-21T06:37:58;101604.13;;;13.85;61.22
74627;BME280;63132;52.268;5.192;2024-02-21T06:40:23;101596.56;;;13.82;61.46
74627;BME280;63132;52.268;5.192;2024-02-21T06:42:49;101600.22;;;13.72;62.39
74627;BME280;63132;52.268;5.192;2024-02-21T06:45:15;101603.78;;;13.69;62.10
74627;BME280;63132;52.268;5.192;2024-02-21T06:47:41;101610.19;;;13.66;62.20
74627;BME280;63132;52.268;5.192;2024-02-21T06:50:06;101596.38;;;13.45;62.96
74627;BME280;63132;52.268;5.192;2024-02-21T06:52:32;101593.94;;;13.57;62.67
74627;BME280;63132;52.268;5.192;2024-02-21T06:54:57;101591.28;;;13.29;63.86
74627;BME280;63132;52.268;5.192;2024-02-21T06:57:22;101586.47;;;13.37;63.27
74627;BME280;63132;52.268;5.192;2024-02-21T06:59:48;101589.66;;;13.32;63.64
74627;BME280;63132;52.268;5.192;2024-02-21T07:02:13;101579.94;;;13.72;61.96
74627;BME280;63132;52.268;5.192;2024-02-21T07:04:38;101574.44;;;13.57;62.06
74627;BME280;63132;52.268;5.192;2024-02-21T07:07:03;101573.13;;;13.80;61.50
74627;BME280;63132;52.268;5.192;2024-02-21T07:09:29;101571.19;;;13.70;61.61
74627;BME280;63132;52.268;5.192;2024-02-21T07:11:57;101579.84;;;13.82;61.88
74627;BME280;63132;52.268;5.192;2024-02-21T07:14:22;101565.56;;;13.80;61.76
74627;BME280;63132;52.268;5.192;2024-02-21T07:16:48;101564.03;;;13.72;61.53
74627;BME280;63132;52.268;5.192;2024-02-21T07:19:13;101567.47;;;13.94;60.90
74627;BME280;63132;52.268;5.192;2024-02-21T07:21:38;101560.31;;;13.90;61.23
74627;BME280;63132;52.268;5.192;2024-02-21T07:24:06;101563.88;;;13.17;63.28
74627;BME280;63132;52.268;5.192;2024-02-21T07:26:32;101553.59;;;13.83;61.34
74627;BME280;63132;52.268;5.192;2024-02-21T07:28:57;101554.97;;;13.54;61.33
74627;BME280;63132;52.268;5.192;2024-02-21T07:31:22;101553.03;;;13.47;61.97
74627;BME280;63132;52.268;5.192;2024-02-21T07:33:47;101549.84;;;13.49;62.00
74627;BME280;63132;52.268;5.192;2024-02-21T07:36:15;101548.22;;;13.55;61.68
74627;BME280;63132;52.268;5.192;2024-02-21T07:38:41;101535.63;;;13.36;62.16
74627;BME280;63132;52.268;5.192;2024-02-21T07:41:06;101524.53;;;13.88;60.71
74627;BME280;63132;52.268;5.192;2024-02-21T07:43:32;101519.34;;;13.94;60.19
74627;BME280;63132;52.268;5.192;2024-02-21T07:45:57;101518.94;;;13.92;60.55
74627;BME280;63132;52.268;5.192;2024-02-21T07:48:22;101508.38;;;13.69;61.39
74627;BME280;63132;52.268;5.192;2024-02-21T07:50:51;101502.31;;;13.81;60.98
74627;BME280;63132;52.268;5.192;2024-02-21T07:53:17;101503.16;;;13.74;60.38
74627;BME280;63132;52.268;5.192;2024-02-21T07:55:42;101504.88;;;13.57;61.89
74627;BME280;63132;52.268;5.192;2024-02-21T07:58:07;101504.94;;;14.02;60.62
74627;BME280;63132;52.268;5.192;2024-02-21T08:00:33;101500.56;;;14.01;60.10
74627;BME280;63132;52.268;5.192;2024-02-21T08:02:58;101511.66;;;14.05;60.19
74627;BME280;63132;52.268;5.192;2024-02-21T08:05:23;101508.03;;;14.11;59.59
74627;BME280;63132;52.268;5.192;2024-02-21T08:07:49;101505.72;;;14.48;58.54
74627;BME280;63132;52.268;5.192;2024-02-21T08:10:14;101494.09;;;14.11;59.84
74627;BME280;63132;52.268;5.192;2024-02-21T08:12:41;101495.06;;;14.35;59.35
74627;BME280;63132;52.268;5.192;2024-02-21T08:15:06;101492.09;;;14.16;59.55
74627;BME280;63132;52.268;5.192;2024-02-21T08:17:36;101488.59;;;14.08;59.68
74627;BME280;63132;52.268;5.192;2024-02-21T08:20:03;101484.78;;;14.29;59.36
74627;BME280;63132;52.268;5.192;2024-02-21T08:22:29;101494.81;;;14.19;59.36
74627;BME280;63132;52.268;5.192;2024-02-21T08:24:55;101471.25;;;14.27;58.80
74627;BME280;63132;52.268;5.192;2024-02-21T08:27:20;101479.47;;;14.00;59.91
74627;BME280;63132;52.268;5.192;2024-02-21T08:29:45;101465.19;;;14.39;59.07
74627;BME280;63132;52.268;5.192;2024-02-21T08:32:10;101468.47;;;13.86;60.06
74627;BME280;63132;52.268;5.192;2024-02-21T08:34:36;101464.19;;;14.19;59.49
74627;BME280;63132;52.268;5.192;2024-02-21T08:37:01;101459.91;;;14.07;59.77
74627;BME280;63132;52.268;5.192;2024-02-21T08:39:26;101459.13;;;14.07;60.14
74627;BME280;63132;52.268;5.192;2024-02-21T08:41:54;101452.31;;;14.53;59.09
74627;BME280;63132;52.268;5.192;2024-02-21T08:44:19;101444.91;;;14.35;59.02
74627;BME280;63132;52.268;5.192;2024-02-21T08:46:44;101439.19;;;14.12;59.73
74627;BME280;63132;52.268;5.192;2024-02-21T08:49:10;101433.13;;;14.21;59.40
74627;BME280;63132;52.268;5.192;2024-02-21T08:51:36;101442.91;;;13.98;60.34
74627;BME280;63132;52.268;5.192;2024-02-21T08:54:01;101434.31;;;14.23;59.33
74627;BME280;63132;52.268;5.192;2024-02-21T08:56:30;101437.91;;;14.58;58.88
74627;BME280;63132;52.268;5.192;2024-02-21T08:58:55;101434.03;;;14.10;59.87
74627;BME280;63132;52.268;5.192;2024-02-21T09:01:20;101441.19;;;14.53;58.42
74627;BME280;63132;52.268;5.192;2024-02-21T09:03:46;101435.03;;;14.65;58.39
74627;BME280;63132;52.268;5.192;2024-02-21T09:06:11;101435.28;;;14.78;57.60
74627;BME280;63132;52.268;5.192;2024-02-21T09:08:38;101433.66;;;14.80;57.54
74627;BME280;63132;52.268;5.192;2024-02-21T09:11:06;101421.16;;;14.61;57.74
74627;BME280;63132;52.268;5.192;2024-02-21T09:13:31;101417.09;;;14.66;57.61
74627;BME280;63132;52.268;5.192;2024-02-21T09:15:56;101417.84;;;14.36;57.95
74627;BME280;63132;52.268;5.192;2024-02-21T09:18:22;101417.53;;;14.30;58.45
74627;BME280;63132;52.268;5.192;2024-02-21T09:20:47;101401.66;;;14.61;57.77
74627;BME280;63132;52.268;5.192;2024-02-21T09:23:13;101392.09;;;14.59;57.91
74627;BME280;63132;52.268;5.192;2024-02-21T09:25:38;101372.97;;;14.91;57.28
74627;BME280;63132;52.268;5.192;2024-02-21T09:28:05;101389.53;;;14.37;57.98
74627;BME280;63132;52.268;5.192;2024-02-21T09:30:34;101375.53;;;14.79;57.28
74627;BME280;63132;52.268;5.192;2024-02-21T09:33:00;101375.28;;;14.66;57.26
74627;BME280;63132;52.268;5.192;2024-02-21T09:35:26;101378.41;;;14.37;58.03
74627;BME280;63132;52.268;5.192;2024-02-21T09:37:52;101374.81;;;14.37;57.76
74627;BME280;63132;52.268;5.192;2024-02-21T09:40:18;101361.19;;;14.16;58.28
74627;BME280;63132;52.268;5.192;2024-02-21T09:42:43;101366.09;;;14.35;58.06
74627;BME280;63132;52.268;5.192;2024-02-21T09:45:20;101351.31;;;14.72;56.86
74627;BME280;63132;52.268;5.192;2024-02-21T09:50:24;101333.16;;;14.87;56.53
74627;BME280;63132;52.268;5.192;2024-02-21T09:52:51;101325.06;;;14.70;56.67
74627;BME280;63132;52.268;5.192;2024-02-21T09:55:18;101316.53;;;14.80;56.62
74627;BME280;63132;52.268;5.192;2024-02-21T09:57:44;101306.38;;;14.66;56.35
74627;BME280;63132;52.268;5.192;2024-02-21T10:00:10;101298.50;;;15.12;55.37
74627;BME280;63132;52.268;5.192;2024-02-21T10:02:39;101287.34;;;15.12;55.23
74627;BME280;63132;52.268;5.192;2024-02-21T10:05:07;101279.41;;;15.10;55.56
74627;BME280;63132;52.268;5.192;2024-02-21T10:07:33;101284.44;;;14.95;55.46
74627;BME280;63132;52.268;5.192;2024-02-21T10:10:03;101276.31;;;15.51;54.41
74627;BME280;63132;52.268;5.192;2024-02-21T10:12:28;101277.41;;;15.11;55.25
74627;BME280;63132;52.268;5.192;2024-02-21T10:15:03;101263.72;;;15.20;54.88
74627;BME280;63132;52.268;5.192;2024-02-21T10:17:29;101277.41;;;15.11;55.14
74627;BME280;63132;52.268;5.192;2024-02-21T10:19:54;101258.03;;;15.27;55.00
74627;BME280;63132;52.268;5.192;2024-02-21T10:22:20;101258.56;;;15.18;55.02
74627;BME280;63132;52.268;5.192;2024-02-21T10:24:46;101249.94;;;15.33;54.15
74627;BME280;63132;52.268;5.192;2024-02-21T10:27:11;101244.72;;;15.78;52.93
74627;BME280;63132;52.268;5.192;2024-02-21T10:29:37;101245.25;;;15.49;53.65
74627;BME280;63132;52.268;5.192;2024-02-21T10:32:12;101232.25;;;15.63;53.34
74627;BME280;63132;52.268;5.192;2024-02-21T10:34:39;101228.75;;;15.98;52.72
74627;BME280;63132;52.268;5.192;2024-02-21T10:37:10;101220.78;;;15.97;52.73
74627;BME280;63132;52.268;5.192;2024-02-21T10:39:38;101225.84;;;15.19;53.47
74627;BME280;63132;52.268;5.192;2024-02-21T10:42:05;101228.06;;;15.51;53.44
74627;BME280;63132;52.268;5.192;2024-02-21T10:44:39;101212.56;;;15.70;52.95
74627;BME280;63132;52.268;5.192;2024-02-21T10:47:08;101207.56;;;15.81;51.99
74627;BME280;63132;52.268;5.192;2024-02-21T10:49:37;101197.00;;;15.49;53.16
74627;BME280;63132;52.268;5.192;2024-02-21T10:52:15;101186.66;;;15.89;52.00
74627;BME280;63132;52.268;5.192;2024-02-21T10:54:49;101175.03;;;16.27;51.62
74627;BME280;63132;52.268;5.192;2024-02-21T10:57:19;101161.47;;;16.09;51.83
74627;BME280;63132;52.268;5.192;2024-02-21T10:59:48;101141.19;;;16.05;51.83
74627;BME280;63132;52.268;5.192;2024-02-21T11:02:14;101130.06;;;15.85;52.60
74627;BME280;63132;52.268;5.192;2024-02-21T11:04:42;101127.53;;;15.74;52.35
74627;BME280;63132;52.268;5.192;2024-02-21T11:07:08;101193.16;;;15.83;52.58
74627;BME280;63132;52.268;5.192;2024-02-21T11:09:34;101201.25;;;15.97;51.97
74627;BME280;63132;52.268;5.192;2024-02-21T11:12:03;101194.16;;;15.52;52.84
74627;BME280;63132;52.268;5.192;2024-02-21T11:14:29;101195.13;;;15.66;52.96
74627;BME280;63132;52.268;5.192;2024-02-21T11:16:58;101197.97;;;15.82;52.84
74627;BME280;63132;52.268;5.192;2024-02-21T11:19:26;101197.81;;;15.69;53.13
74627;BME280;63132;52.268;5.192;2024-02-21T11:21:52;101190.09;;;15.57;53.59
74627;BME280;63132;52.268;5.192;2024-02-21T11:24:31;101184.22;;;15.08;54.87
74627;BME280;63132;52.268;5.192;2024-02-21T11:27:12;101176.59;;;15.12;54.35
74627;BME280;63132;52.268;5.192;2024-02-21T11:29:45;101166.00;;;15.23;54.17
74627;BME280;63132;52.268;5.192;2024-02-21T11:32:11;101149.63;;;15.06;54.64
74627;BME280;63132;52.268;5.192;2024-02-21T11:34:41;101136.22;;;15.17;54.55
74627;BME280;63132;52.268;5.192;2024-02-21T11:37:13;101135.41;;;14.96;54.53
74627;BME280;63132;52.268;5.192;2024-02-21T11:39:42;101132.72;;;14.93;55.14
74627;BME280;63132;52.268;5.192;2024-02-21T11:42:08;101115.97;;;14.93;55.19
74627;BME280;63132;52.268;5.192;2024-02-21T11:44:34;101116.78;;;14.70;55.75
74627;BME280;63132;52.268;5.192;2024-02-21T11:47:00;101117.50;;;14.98;54.80
74627;BME280;63132;52.268;5.192;2024-02-21T11:49:26;101110.16;;;15.27;54.03
74627;BME280;63132;52.268;5.192;2024-02-21T11:51:59;101109.84;;;15.02;54.28
74627;BME280;63132;52.268;5.192;2024-02-21T11:54:25;101092.34;;;15.21;53.86
74627;BME280;63132;52.268;5.192;2024-02-21T11:56:51;101054.03;;;15.61;53.08
74627;BME280;63132;52.268;5.192;2024-02-21T11:59:16;101043.94;;;16.00;51.51
74627;BME280;63132;52.268;5.192;2024-02-21T12:01:42;101026.72;;;16.01;50.95
74627;BME280;63132;52.268;5.192;2024-02-21T12:04:07;101014.72;;;15.88;51.48
74627;BME280;63132;52.268;5.192;2024-02-21T12:06:33;101015.47;;;16.21;51.67
74627;BME280;63132;52.268;5.192;2024-02-21T12:08:58;100997.84;;;16.70;49.69
74627;BME280;63132;52.268;5.192;2024-02-21T12:11:24;100997.19;;;16.49;49.57
74627;BME280;63132;52.268;5.192;2024-02-21T12:14:03;100987.13;;;16.81;49.46
74627;BME280;63132;52.268;5.192;2024-02-21T12:16:33;100984.84;;;16.92;49.02
74627;BME280;63132;52.268;5.192;2024-02-21T12:18:59;100987.75;;;17.01;49.11
74627;BME280;63132;52.268;5.192;2024-02-21T12:21:26;100975.31;;;16.89;49.09
74627;BME280;63132;52.268;5.192;2024-02-21T12:23:56;100982.97;;;16.73;49.41
74627;BME280;63132;52.268;5.192;2024-02-21T12:26:22;100967.13;;;16.82;50.11
74627;BME280;63132;52.268;5.192;2024-02-21T12:28:47;100958.59;;;16.73;50.00
74627;BME280;63132;52.268;5.192;2024-02-21T12:31:13;100954.41;;;16.36;50.56
74627;BME280;63132;52.268;5.192;2024-02-21T12:33:39;100941.38;;;16.17;51.46
74627;BME280;63132;52.268;5.192;2024-02-21T12:36:04;100936.47;;;16.79;50.21
74627;BME280;63132;52.268;5.192;2024-02-21T12:38:29;100926.66;;;16.29;51.01
74627;BME280;63132;52.268;5.192;2024-02-21T12:40:55;100938.72;;;16.26;51.70
74627;BME280;63132;52.268;5.192;2024-02-21T12:43:22;100916.56;;;16.19;51.71
74627;BME280;63132;52.268;5.192;2024-02-21T12:45:48;100914.66;;;15.99;51.81
74627;BME280;63132;52.268;5.192;2024-02-21T12:48:13;100900.31;;;16.72;50.72
74627;BME280;63132;52.268;5.192;2024-02-21T12:50:40;100887.72;;;17.18;49.81